createdAt,value
2023-08-29T00:01:03.191Z,35.40
2023-08-29T00:03:30.095Z,35.80
2023-08-29T00:06:06.987Z,36.10
2023-08-29T00:08:34.033Z,36.00
2023-08-29T00:11:02.147Z,36.20
2023-08-29T00:13:29.060Z,36.40
2023-08-29T00:15:55.970Z,37.00
2023-08-29T00:18:23.314Z,37.10
2023-08-29T00:20:50.586Z,37.20
2023-08-29T00:23:17.557Z,37.10
2023-08-29T00:25:44.485Z,36.90
2023-08-29T00:28:11.409Z,36.90
2023-08-29T00:30:41.583Z,36.80
2023-08-29T00:33:10.255Z,36.70
2023-08-29T00:35:37.619Z,36.70
2023-08-29T00:38:05.085Z,36.70
2023-08-29T00:40:32.629Z,36.80
2023-08-29T00:43:03.465Z,36.50
2023-08-29T00:45:36.839Z,36.80
2023-08-29T00:48:05.111Z,36.80
2023-08-29T00:50:32.563Z,36.70
2023-08-29T00:53:02.362Z,36.80
2023-08-29T00:55:30.470Z,36.70
2023-08-29T00:57:58.103Z,36.80
2023-08-29T01:00:26.487Z,36.90
2023-08-29T01:02:53.834Z,36.90
2023-08-29T01:05:20.859Z,36.70
2023-08-29T01:07:52.669Z,36.60
2023-08-29T01:10:29.491Z,36.50
2023-08-29T01:13:11.674Z,36.70
2023-08-29T01:15:41.581Z,36.50
2023-08-29T01:18:11.262Z,36.90
2023-08-29T01:20:38.860Z,37.20
2023-08-29T01:23:31.234Z,36.90
2023-08-29T01:26:16.824Z,37.00
2023-08-29T01:28:45.585Z,37.00
2023-08-29T01:31:13.674Z,36.90
2023-08-29T01:33:43.954Z,37.10
2023-08-29T01:36:10.992Z,37.20
2023-08-29T01:38:37.923Z,37.10
2023-08-29T01:41:04.856Z,37.30
2023-08-29T01:43:31.864Z,37.30
2023-08-29T01:45:58.821Z,37.30
2023-08-29T01:48:25.877Z,36.90
2023-08-29T01:50:54.440Z,37.10
2023-08-29T01:53:21.383Z,37.00
2023-08-29T01:55:50.261Z,36.90
2023-08-29T01:58:18.137Z,37.20
2023-08-29T02:00:45.773Z,37.30
2023-08-29T02:03:12.885Z,36.90
2023-08-29T02:05:39.908Z,37.20
2023-08-29T02:08:07.257Z,37.20
2023-08-29T02:10:34.432Z,37.10
2023-08-29T02:13:01.387Z,37.10
2023-08-29T02:15:28.326Z,37.20
2023-08-29T02:17:55.317Z,37.20
2023-08-29T02:20:23.609Z,37.10
2023-08-29T02:22:50.502Z,37.20
2023-08-29T02:25:17.420Z,37.40
2023-08-29T02:27:44.324Z,37.40
2023-08-29T02:30:11.778Z,36.80
2023-08-29T02:32:38.865Z,36.60
2023-08-29T02:35:06.199Z,36.90
2023-08-29T02:37:33.690Z,36.80
2023-08-29T02:40:00.577Z,36.50
2023-08-29T02:42:27.636Z,36.50
2023-08-29T02:44:54.574Z,36.60
2023-08-29T02:47:21.437Z,37.20
2023-08-29T02:49:48.383Z,37.10
2023-08-29T02:52:15.339Z,37.40
2023-08-29T02:54:42.336Z,37.40
2023-08-29T02:57:09.268Z,37.50
2023-08-29T02:59:36.218Z,37.50
2023-08-29T03:02:03.229Z,37.50
2023-08-29T03:04:30.928Z,37.20
2023-08-29T03:06:58.154Z,37.40
2023-08-29T03:09:25.057Z,37.40
2023-08-29T03:11:51.948Z,37.40
2023-08-29T03:14:18.845Z,37.40
2023-08-29T03:16:45.868Z,37.40
2023-08-29T03:19:12.875Z,37.00
2023-08-29T03:21:39.823Z,36.90
2023-08-29T03:24:06.942Z,37.10
2023-08-29T03:26:33.917Z,36.90
2023-08-29T03:29:00.851Z,37.00
2023-08-29T03:31:27.807Z,36.80
2023-08-29T03:33:54.717Z,36.80
2023-08-29T03:36:21.642Z,36.90
2023-08-29T03:38:48.532Z,37.20
2023-08-29T03:41:15.418Z,36.60
2023-08-29T03:43:42.347Z,36.80
2023-08-29T03:46:09.509Z,36.60
2023-08-29T03:48:37.819Z,36.80
2023-08-29T03:51:05.274Z,36.60
2023-08-29T03:53:32.191Z,36.70
2023-08-29T03:56:03.822Z,36.70
2023-08-29T03:58:31.773Z,36.80
2023-08-29T04:00:59.342Z,36.80
2023-08-29T04:03:27.088Z,36.90
2023-08-29T04:05:54.258Z,36.80
2023-08-29T04:08:21.209Z,36.80
2023-08-29T04:10:48.144Z,36.80
2023-08-29T04:13:15.378Z,36.70
2023-08-29T04:15:43.103Z,36.50
2023-08-29T04:18:11.428Z,36.70
2023-08-29T04:20:38.665Z,36.40
2023-08-29T04:23:05.962Z,36.60
2023-08-29T04:25:34.629Z,36.70
2023-08-29T04:28:01.583Z,36.60
2023-08-29T04:30:28.544Z,36.80
2023-08-29T04:32:55.464Z,36.90
2023-08-29T04:35:22.523Z,36.80
2023-08-29T04:37:50.279Z,36.70
2023-08-29T04:40:19.092Z,36.90
2023-08-29T04:42:46.376Z,36.80
2023-08-29T04:45:13.391Z,36.90
2023-08-29T04:47:40.690Z,36.90
2023-08-29T04:50:08.453Z,36.90
2023-08-29T04:52:35.613Z,37.00
2023-08-29T04:55:02.692Z,36.90
2023-08-29T04:57:29.657Z,36.90
2023-08-29T04:59:56.562Z,37.90
2023-08-29T05:02:23.791Z,37.10
2023-08-29T05:04:50.752Z,37.00
2023-08-29T05:07:17.668Z,36.90
2023-08-29T05:09:44.611Z,37.10
2023-08-29T05:12:11.649Z,37.20
2023-08-29T05:14:39.190Z,37.10
2023-08-29T05:17:06.472Z,37.30
2023-08-29T05:19:33.385Z,37.90
2023-08-29T05:22:00.314Z,36.80
2023-08-29T05:24:27.265Z,37.20
2023-08-29T05:26:54.566Z,37.30
2023-08-29T05:29:21.618Z,37.30
2023-08-29T05:31:48.562Z,37.10
2023-08-29T05:34:15.468Z,37.00
2023-08-29T05:36:42.520Z,37.00
2023-08-29T05:39:09.493Z,37.30
2023-08-29T05:41:37.193Z,37.00
2023-08-29T05:44:04.235Z,37.00
2023-08-29T05:46:31.447Z,37.10
2023-08-29T05:48:58.653Z,36.90
2023-08-29T05:51:25.530Z,36.60
2023-08-29T05:53:52.436Z,36.60
2023-08-29T05:56:19.324Z,36.60
2023-08-29T05:58:46.247Z,36.50
2023-08-29T06:01:13.337Z,36.10
2023-08-29T06:03:40.376Z,36.40
2023-08-29T06:06:07.332Z,36.30
2023-08-29T06:08:34.813Z,36.40
2023-08-29T06:11:02.344Z,35.80
2023-08-29T06:13:29.284Z,35.70
2023-08-29T06:15:56.174Z,35.90
2023-08-29T06:18:23.325Z,36.10
2023-08-29T06:20:50.251Z,36.40
2023-08-29T06:23:17.166Z,36.10
2023-08-29T06:25:46.411Z,37.00
2023-08-29T06:28:13.429Z,36.60
2023-08-29T06:30:40.522Z,36.50
2023-08-29T06:33:11.302Z,36.50
2023-08-29T06:35:45.786Z,36.70
2023-08-29T06:38:12.832Z,36.80
2023-08-29T06:40:39.735Z,36.50
2023-08-29T06:43:06.652Z,36.50
2023-08-29T06:45:34.929Z,36.30
2023-08-29T06:48:01.966Z,36.50
2023-08-29T06:50:28.985Z,36.40
2023-08-29T06:52:55.917Z,36.60
2023-08-29T06:55:22.883Z,36.40
2023-08-29T06:57:49.815Z,36.30
2023-08-29T07:00:16.896Z,36.30
2023-08-29T07:02:45.312Z,36.50
2023-08-29T07:05:12.295Z,36.20
2023-08-29T07:07:39.209Z,36.10
2023-08-29T07:10:06.355Z,36.30
2023-08-29T07:12:34.076Z,36.10
2023-08-29T07:15:01.184Z,36.00
2023-08-29T07:17:28.788Z,35.80
2023-08-29T07:19:55.723Z,36.80
2023-08-29T07:22:24.494Z,36.10
2023-08-29T07:24:52.698Z,36.10
2023-08-29T07:27:20.294Z,35.90
2023-08-29T07:29:47.864Z,36.00
2023-08-29T07:32:14.764Z,36.10
2023-08-29T07:34:41.972Z,36.00
2023-08-29T07:37:09.401Z,35.60
2023-08-29T07:39:39.532Z,35.90
2023-08-29T07:42:06.772Z,36.10
2023-08-29T07:44:36.799Z,36.10
2023-08-29T07:47:14.932Z,35.70
2023-08-29T07:49:43.772Z,35.80
2023-08-29T07:52:10.999Z,35.90
2023-08-29T07:54:38.119Z,35.70
2023-08-29T07:57:07.810Z,35.90
2023-08-29T07:59:35.042Z,36.20
2023-08-29T08:02:02.075Z,35.70
2023-08-29T08:04:29.122Z,35.90
2023-08-29T08:06:56.048Z,35.80
2023-08-29T08:09:23.008Z,36.10
2023-08-29T08:11:50.050Z,36.10
2023-08-29T08:14:17.533Z,36.40
2023-08-29T08:16:44.799Z,36.50
2023-08-29T08:19:12.185Z,36.60
2023-08-29T08:21:39.174Z,36.30
2023-08-29T08:24:06.478Z,36.30
2023-08-29T08:26:35.279Z,36.00
2023-08-29T08:29:02.248Z,36.20
2023-08-29T08:31:29.366Z,36.50
2023-08-29T08:33:56.345Z,36.20
2023-08-29T08:36:24.417Z,36.20
2023-08-29T08:38:51.476Z,36.20
2023-08-29T08:41:19.900Z,36.10
2023-08-29T08:43:49.397Z,36.10
2023-08-29T08:46:18.246Z,36.20
2023-08-29T08:48:45.249Z,36.20
2023-08-29T08:51:13.704Z,36.10
2023-08-29T08:53:42.028Z,36.20
2023-08-29T08:56:09.811Z,36.50
2023-08-29T08:58:37.781Z,36.20
2023-08-29T09:01:05.584Z,36.50
2023-08-29T09:03:32.739Z,36.60
2023-08-29T09:05:59.673Z,36.50
2023-08-29T09:08:26.685Z,36.60
2023-08-29T09:10:53.642Z,36.50
2023-08-29T09:13:21.431Z,36.70
2023-08-29T09:15:48.639Z,36.60
2023-08-29T09:18:24.835Z,36.70
2023-08-29T09:20:52.484Z,36.80
2023-08-29T09:23:24.316Z,37.00
2023-08-29T09:26:00.670Z,37.00
2023-08-29T09:28:28.858Z,36.90
2023-08-29T09:30:56.608Z,37.10
2023-08-29T09:33:23.621Z,37.30
2023-08-29T09:35:51.348Z,37.30
2023-08-29T09:38:18.904Z,37.30
2023-08-29T09:40:50.128Z,37.20
2023-08-29T09:43:17.936Z,36.80
2023-08-29T09:45:50.375Z,37.10
2023-08-29T09:48:17.781Z,37.20
2023-08-29T09:50:45.294Z,36.80
2023-08-29T09:53:16.178Z,37.20
2023-08-29T09:56:09.004Z,36.70
2023-08-29T09:58:38.687Z,37.00
2023-08-29T10:01:09.224Z,37.10
2023-08-29T10:03:36.687Z,37.10
2023-08-29T10:06:08.374Z,36.90
2023-08-29T10:08:47.410Z,37.10
2023-08-29T10:11:14.481Z,37.20
2023-08-29T10:13:42.578Z,37.30
2023-08-29T10:16:10.596Z,37.10
2023-08-29T10:18:38.418Z,37.30
2023-08-29T10:21:05.868Z,37.60
2023-08-29T10:23:33.097Z,37.50
2023-08-29T10:26:00.972Z,37.40
2023-08-29T10:28:30.047Z,37.40
2023-08-29T10:31:02.349Z,37.30
2023-08-29T10:33:29.502Z,37.60
2023-08-29T10:35:56.530Z,37.20
2023-08-29T10:38:24.134Z,37.50
2023-08-29T10:41:01.991Z,37.60
2023-08-29T10:43:30.014Z,37.20
2023-08-29T10:45:57.945Z,37.30
2023-08-29T10:48:30.880Z,37.10
2023-08-29T10:51:19.835Z,37.30
2023-08-29T10:53:52.031Z,37.40
2023-08-29T10:56:19.715Z,37.60
2023-08-29T10:58:48.293Z,37.80
2023-08-29T11:01:27.548Z,37.90
2023-08-29T11:03:55.312Z,37.80
2023-08-29T11:06:26.950Z,37.50
2023-08-29T11:09:19.335Z,37.50
2023-08-29T11:11:46.130Z,38.00
2023-08-29T11:14:14.101Z,38.00
2023-08-29T11:17:13.339Z,37.60
2023-08-29T11:19:42.391Z,37.80
2023-08-29T11:22:10.338Z,37.80
2023-08-29T11:24:37.459Z,37.80
2023-08-29T11:27:05.859Z,37.80
2023-08-29T11:29:39.622Z,37.50
2023-08-29T11:32:06.768Z,37.70
2023-08-29T11:34:37.714Z,37.60
2023-08-29T11:37:11.684Z,37.60
2023-08-29T11:43:09.478Z,37.80
2023-08-29T11:45:48.417Z,38.00
2023-08-29T11:48:14.014Z,38.00
2023-08-29T11:50:42.621Z,38.00
2023-08-29T11:53:09.611Z,37.80
2023-08-29T11:55:36.619Z,38.10
2023-08-29T11:58:03.623Z,37.90
2023-08-29T12:00:33.647Z,38.20
2023-08-29T12:03:00.657Z,37.80
2023-08-29T12:05:27.659Z,38.00
2023-08-29T12:07:54.628Z,38.20
2023-08-29T12:10:21.581Z,38.20
2023-08-29T12:12:49.727Z,38.30
2023-08-29T12:15:24.232Z,38.40
2023-08-29T12:17:57.987Z,37.90
2023-08-29T12:20:35.069Z,38.10
2023-08-29T12:23:04.131Z,37.70
2023-08-29T12:25:31.026Z,37.60
2023-08-29T12:27:57.992Z,37.80
2023-08-29T12:30:24.892Z,37.40
2023-08-29T12:32:52.209Z,37.60
2023-08-29T12:35:19.400Z,37.50
2023-08-29T12:37:47.700Z,37.50
2023-08-29T12:40:14.755Z,37.70
2023-08-29T12:42:42.714Z,37.50
2023-08-29T12:45:09.952Z,37.50
2023-08-29T12:47:37.105Z,37.30
2023-08-29T12:50:04.416Z,37.50
2023-08-29T12:52:31.465Z,37.50
2023-08-29T12:54:58.616Z,37.50
2023-08-29T12:57:25.532Z,37.20
2023-08-29T12:59:52.450Z,37.30
2023-08-29T13:02:19.392Z,37.50
2023-08-29T13:04:46.630Z,37.60
2023-08-29T13:07:13.553Z,37.30
2023-08-29T13:09:42.247Z,37.50
2023-08-29T13:12:09.517Z,37.70
2023-08-29T13:14:39.539Z,37.60
2023-08-29T13:17:09.389Z,37.50
2023-08-29T13:19:38.453Z,37.70
2023-08-29T13:22:06.310Z,37.70
2023-08-29T13:24:33.504Z,37.30
2023-08-29T13:27:00.495Z,37.70
2023-08-29T13:29:27.852Z,37.10
2023-08-29T13:31:54.993Z,37.30
2023-08-29T13:34:21.971Z,37.10
2023-08-29T13:36:49.203Z,37.00
2023-08-29T13:39:16.203Z,38.10
2023-08-29T13:41:43.188Z,37.30
2023-08-29T13:44:10.129Z,37.40
2023-08-29T13:46:37.051Z,37.70
2023-08-29T13:49:04.470Z,37.30
2023-08-29T13:51:31.472Z,37.30
2023-08-29T13:53:58.418Z,37.30
2023-08-29T13:56:25.434Z,37.50
2023-08-29T13:58:52.627Z,37.50
2023-08-29T14:01:19.841Z,38.00
2023-08-29T14:03:46.900Z,37.70
2023-08-29T14:06:13.977Z,37.80
2023-08-29T14:08:40.888Z,38.00
2023-08-29T14:11:08.497Z,38.10
2023-08-29T14:13:35.882Z,37.90
2023-08-29T14:16:03.827Z,38.10
2023-08-29T14:18:31.686Z,37.90
2023-08-29T14:20:58.761Z,37.80
2023-08-29T14:23:26.514Z,37.70
2023-08-29T14:25:56.388Z,37.40
2023-08-29T14:28:23.380Z,37.50
2023-08-29T14:30:50.264Z,37.70
2023-08-29T14:33:17.267Z,37.20
2023-08-29T14:35:44.299Z,38.10
2023-08-29T14:38:11.318Z,38.00
2023-08-29T14:40:38.543Z,38.10
2023-08-29T14:43:06.119Z,37.90
2023-08-29T14:45:34.024Z,38.90
2023-08-29T14:48:01.123Z,38.40
2023-08-29T14:50:30.969Z,38.90
2023-08-29T14:52:57.890Z,38.50
2023-08-29T14:55:24.825Z,38.80
2023-08-29T14:57:51.886Z,38.60
2023-08-29T15:00:18.967Z,38.50
2023-08-29T15:02:46.833Z,38.80
2023-08-29T15:05:13.884Z,38.60
2023-08-29T15:07:41.976Z,38.70
2023-08-29T15:10:09.586Z,38.80
2023-08-29T15:12:36.593Z,39.70
2023-08-29T15:15:03.743Z,40.00
2023-08-29T15:17:30.974Z,40.00
2023-08-29T15:19:58.400Z,39.60
2023-08-29T15:22:25.520Z,39.80
2023-08-29T15:24:52.642Z,39.50
2023-08-29T15:27:19.519Z,39.50
2023-08-29T15:29:46.408Z,39.20
2023-08-29T15:32:13.340Z,39.20
2023-08-29T15:34:40.268Z,39.20
2023-08-29T15:37:07.262Z,39.10
2023-08-29T15:39:34.713Z,38.90
2023-08-29T15:42:01.840Z,38.90
2023-08-29T15:44:32.546Z,38.90
2023-08-29T15:46:59.459Z,38.70
2023-08-29T15:49:26.790Z,38.40
2023-08-29T15:51:53.780Z,38.60
2023-08-29T15:54:20.687Z,38.20
2023-08-29T15:56:47.608Z,38.70
2023-08-29T15:59:14.786Z,38.30
2023-08-29T16:01:41.765Z,38.20
2023-08-29T16:04:08.823Z,38.30
2023-08-29T16:06:35.728Z,38.30
2023-08-29T16:09:02.677Z,38.90
2023-08-29T16:11:29.602Z,39.30
2023-08-29T16:13:56.512Z,39.00
2023-08-29T16:16:23.464Z,38.90
2023-08-29T16:18:50.449Z,39.30
2023-08-29T16:21:17.866Z,39.10
2023-08-29T16:23:44.933Z,39.50
2023-08-29T16:26:16.611Z,39.80
2023-08-29T16:28:44.522Z,39.30
2023-08-29T16:31:11.681Z,39.20
2023-08-29T16:33:38.647Z,39.90
2023-08-29T16:36:06.311Z,40.20
2023-08-29T16:38:33.464Z,40.40
2023-08-29T16:41:00.416Z,40.40
2023-08-29T16:43:27.971Z,40.40
2023-08-29T16:45:54.946Z,40.90
2023-08-29T16:48:22.006Z,41.40
2023-08-29T16:50:50.388Z,41.00
2023-08-29T16:53:17.891Z,40.70
2023-08-29T16:55:44.858Z,40.20
2023-08-29T16:58:11.941Z,40.10
2023-08-29T17:00:39.174Z,39.80
2023-08-29T17:03:10.479Z,39.80
2023-08-29T17:05:38.813Z,39.80
2023-08-29T17:08:07.553Z,39.70
2023-08-29T17:10:37.118Z,39.30
2023-08-29T17:13:04.244Z,39.30
2023-08-29T17:15:31.130Z,39.00
2023-08-29T17:17:59.366Z,39.50
2023-08-29T17:20:26.342Z,40.00
2023-08-29T17:22:53.299Z,39.70
2023-08-29T17:25:20.283Z,39.30
2023-08-29T17:27:47.360Z,39.40
2023-08-29T17:30:14.382Z,39.00
2023-08-29T17:32:41.391Z,39.00
2023-08-29T17:35:08.504Z,39.00
2023-08-29T17:37:40.072Z,38.70
2023-08-29T17:40:07.817Z,38.40
2023-08-29T17:42:35.011Z,38.30
2023-08-29T17:45:01.991Z,38.50
2023-08-29T17:47:28.941Z,38.70
2023-08-29T17:49:58.819Z,38.60
2023-08-29T17:52:25.729Z,38.50
2023-08-29T17:54:52.646Z,38.40
2023-08-29T17:57:19.590Z,38.50
2023-08-29T17:59:49.302Z,39.30
2023-08-29T18:02:16.631Z,39.70
2023-08-29T18:04:44.219Z,40.80
2023-08-29T18:07:11.142Z,40.30
2023-08-29T18:09:38.107Z,40.40
2023-08-29T18:12:05.192Z,40.60
2023-08-29T18:14:32.542Z,41.20
2023-08-29T18:17:00.742Z,40.90
2023-08-29T18:19:27.666Z,40.70
2023-08-29T18:21:54.577Z,40.90
2023-08-29T18:24:21.707Z,40.90
2023-08-29T18:26:48.621Z,41.20
2023-08-29T18:29:15.530Z,41.00
2023-08-29T18:31:42.502Z,40.80
2023-08-29T18:34:09.475Z,41.00
2023-08-29T18:36:38.240Z,40.50
2023-08-29T18:39:08.064Z,40.10
2023-08-29T18:41:37.896Z,40.60
2023-08-29T18:44:05.148Z,41.30
2023-08-29T18:46:32.047Z,41.30
2023-08-29T18:48:58.963Z,41.50
2023-08-29T18:51:25.882Z,42.30
2023-08-29T18:53:52.866Z,42.80
2023-08-29T18:56:21.154Z,43.10
2023-08-29T18:58:48.189Z,43.20
2023-08-29T19:01:15.197Z,42.40
2023-08-29T19:03:42.689Z,42.20
2023-08-29T19:06:12.442Z,42.30
2023-08-29T19:08:49.662Z,42.50
2023-08-29T19:11:19.410Z,42.30
2023-08-29T19:13:46.353Z,42.50
2023-08-29T19:16:13.341Z,42.20
2023-08-29T19:18:40.724Z,41.70
2023-08-29T19:21:07.823Z,41.30
2023-08-29T19:23:34.781Z,41.60
2023-08-29T19:26:03.932Z,41.20
2023-08-29T19:28:30.867Z,41.50
2023-08-29T19:30:57.820Z,42.00
2023-08-29T19:33:24.840Z,41.90
2023-08-29T19:35:51.813Z,42.10
2023-08-29T19:38:18.740Z,42.30
2023-08-29T19:40:45.634Z,42.20
2023-08-29T19:43:12.526Z,42.00
2023-08-29T19:45:39.446Z,42.10
2023-08-29T19:48:07.105Z,41.60
2023-08-29T19:50:34.308Z,41.50
2023-08-29T19:53:01.492Z,41.00
2023-08-29T19:55:28.400Z,40.70
2023-08-29T19:57:55.314Z,40.50
2023-08-29T20:00:22.285Z,41.00
2023-08-29T20:02:49.434Z,40.20
2023-08-29T20:05:16.536Z,40.40
2023-08-29T20:07:43.437Z,40.10
2023-08-29T20:10:10.861Z,40.30
2023-08-29T20:12:37.806Z,40.10
2023-08-29T20:15:05.554Z,40.00
2023-08-29T20:17:32.551Z,39.90
2023-08-29T20:19:59.598Z,39.60
2023-08-29T20:22:26.721Z,39.70
2023-08-29T20:24:53.626Z,39.70
2023-08-29T20:27:20.684Z,39.90
2023-08-29T20:29:50.455Z,39.50
2023-08-29T20:32:17.436Z,39.20
2023-08-29T20:34:46.606Z,39.40
2023-08-29T20:37:13.520Z,39.30
2023-08-29T20:39:40.467Z,39.40
2023-08-29T20:42:07.534Z,39.60
2023-08-29T20:44:34.503Z,39.50
2023-08-29T20:47:01.448Z,39.10
2023-08-29T20:49:28.373Z,39.00
2023-08-29T20:51:55.317Z,39.00
2023-08-29T20:54:22.286Z,39.40
2023-08-29T20:56:49.296Z,39.10
2023-08-29T20:59:16.260Z,38.90
2023-08-29T21:01:43.201Z,39.00
2023-08-29T21:04:10.162Z,39.10
2023-08-29T21:06:39.687Z,38.70
2023-08-29T21:09:06.917Z,38.90
2023-08-29T21:11:33.842Z,38.70
2023-08-29T21:14:00.765Z,39.00
2023-08-29T21:16:27.706Z,39.20
2023-08-29T21:18:54.640Z,39.20
2023-08-29T21:21:21.790Z,39.20
2023-08-29T21:23:52.098Z,39.40
2023-08-29T21:26:19.099Z,39.70
2023-08-29T21:28:46.007Z,40.10
2023-08-29T21:31:12.975Z,40.50
2023-08-29T21:33:39.907Z,40.70
2023-08-29T21:36:07.053Z,40.70
2023-08-29T21:38:34.102Z,40.80
2023-08-29T21:41:04.988Z,40.70
2023-08-29T21:43:31.982Z,40.30
2023-08-29T21:46:02.977Z,40.10
2023-08-29T21:48:30.183Z,40.30
2023-08-29T21:50:58.209Z,40.00
2023-08-29T21:53:25.867Z,39.70
2023-08-29T21:55:53.374Z,39.70
2023-08-29T21:58:20.808Z,40.00
2023-08-29T22:00:52.848Z,40.30
2023-08-29T22:03:23.692Z,39.80
2023-08-29T22:05:51.407Z,39.80
2023-08-29T22:08:19.827Z,39.90
2023-08-29T22:10:47.691Z,39.60
2023-08-29T22:13:14.626Z,39.70
2023-08-29T22:15:41.674Z,39.80
2023-08-29T22:18:08.827Z,39.50
2023-08-29T22:20:36.160Z,39.60
2023-08-29T22:23:03.241Z,39.40
2023-08-29T22:25:30.174Z,39.30
2023-08-29T22:27:57.611Z,39.60
2023-08-29T22:30:24.628Z,40.30
2023-08-29T22:32:51.745Z,40.60
2023-08-29T22:35:19.166Z,40.70
2023-08-29T22:37:46.117Z,40.70
2023-08-29T22:40:13.011Z,40.80
2023-08-29T22:42:39.996Z,40.30
2023-08-29T22:45:07.376Z,40.50
2023-08-29T22:47:34.343Z,41.70
2023-08-29T22:50:01.288Z,41.10
2023-08-29T22:52:28.225Z,41.00
2023-08-29T22:54:55.289Z,40.80
2023-08-29T22:57:22.296Z,41.00
2023-08-29T22:59:49.205Z,41.10
2023-08-29T23:02:16.177Z,41.00
2023-08-29T23:04:43.371Z,41.20
2023-08-29T23:07:10.524Z,41.10
2023-08-29T23:09:38.694Z,40.70
2023-08-29T23:12:06.324Z,40.50
2023-08-29T23:14:33.481Z,40.40
2023-08-29T23:17:00.519Z,39.90
2023-08-29T23:19:28.656Z,40.30
2023-08-29T23:21:56.064Z,40.60
2023-08-29T23:24:22.998Z,41.10
2023-08-29T23:26:49.914Z,41.00
2023-08-29T23:29:17.260Z,40.80
2023-08-29T23:31:44.525Z,40.90
2023-08-29T23:34:11.516Z,40.80
2023-08-29T23:36:38.868Z,40.70
2023-08-29T23:39:06.065Z,40.70
2023-08-29T23:41:33.021Z,41.60
2023-08-29T23:43:59.936Z,41.30
2023-08-29T23:46:26.893Z,41.10
2023-08-29T23:48:53.934Z,41.20
2023-08-29T23:51:20.873Z,42.10
2023-08-29T23:53:47.758Z,41.10
2023-08-29T23:56:14.734Z,40.70
2023-08-29T23:58:41.621Z,40.40
